createdAt,value
2019-04-27T00:02:36.947Z,80.84
2019-04-27T00:05:32.250Z,80.95
2019-04-27T00:08:16.882Z,79.69
2019-04-27T00:11:09.532Z,80.07
2019-04-27T00:13:41.692Z,79.32
2019-04-27T00:16:23.467Z,79.78
2019-04-27T00:19:13.265Z,79.55
2019-04-27T00:22:02.746Z,79.36
2019-04-27T00:24:35.744Z,78.94
2019-04-27T00:27:06.850Z,78.73
2019-04-27T00:29:37.718Z,78.22
2019-04-27T00:32:08.681Z,79.26
2019-04-27T00:34:39.671Z,78.61
2019-04-27T00:37:29.472Z,78.90
2019-04-27T00:40:26.729Z,78.18
2019-04-27T00:42:57.857Z,78.65
2019-04-27T00:45:28.813Z,79.71
2019-04-27T00:48:00.018Z,78.36
2019-04-27T00:50:33.790Z,78.12
2019-04-27T00:53:04.877Z,78.32
2019-04-27T00:55:37.385Z,77.65
2019-04-27T00:58:27.158Z,78.35
2019-04-27T01:01:09.892Z,78.02
2019-04-27T01:03:56.070Z,77.94
2019-04-27T01:06:27.197Z,78.53
2019-04-27T01:08:58.184Z,78.75
2019-04-27T01:11:28.986Z,79.06
2019-04-27T01:13:59.892Z,78.32
2019-04-27T01:16:30.673Z,78.47
2019-04-27T01:19:01.653Z,78.63
2019-04-27T01:21:32.533Z,79.78
2019-04-27T01:24:03.509Z,79.57
2019-04-27T01:27:01.068Z,78.52
2019-04-27T01:29:33.258Z,78.41
2019-04-27T01:32:04.942Z,78.45
2019-04-27T01:34:35.948Z,79.38
2019-04-27T01:37:06.851Z,79.38
2019-04-27T01:39:38.722Z,80.51
2019-04-27T01:42:10.621Z,79.96
2019-04-27T01:44:41.439Z,80.49
2019-04-27T01:47:12.347Z,80.87
2019-04-27T01:49:43.358Z,81.00
2019-04-27T01:52:14.118Z,81.07
2019-04-27T01:54:45.104Z,80.81
2019-04-27T01:57:15.961Z,80.67
2019-04-27T01:59:48.795Z,80.84
2019-04-27T02:02:37.082Z,81.27
2019-04-27T02:05:26.933Z,80.66
2019-04-27T02:07:59.308Z,79.35
2019-04-27T02:10:31.141Z,78.28
2019-04-27T02:13:02.067Z,77.26
2019-04-27T02:15:33.045Z,78.08
2019-04-27T02:18:03.962Z,77.67
2019-04-27T02:20:38.680Z,77.29
2019-04-27T02:23:09.750Z,76.98
2019-04-27T02:25:40.662Z,76.53
2019-04-27T02:28:21.735Z,76.83
2019-04-27T02:31:10.343Z,76.81
2019-04-27T02:34:00.169Z,75.94
2019-04-27T02:36:31.209Z,75.22
2019-04-27T02:39:02.291Z,74.71
2019-04-27T02:41:34.619Z,75.35
2019-04-27T02:44:11.913Z,74.48
2019-04-27T02:46:42.784Z,73.80
2019-04-27T02:49:13.721Z,73.85
2019-04-27T02:52:02.454Z,73.92
2019-04-27T02:54:33.457Z,74.17
2019-04-27T02:57:04.323Z,74.36
2019-04-27T02:59:35.279Z,74.17
2019-04-27T03:02:25.143Z,74.20
2019-04-27T03:04:56.015Z,74.13
2019-04-27T03:07:26.918Z,74.53
2019-04-27T03:09:59.652Z,74.12
2019-04-27T03:12:35.358Z,74.28
2019-04-27T03:15:41.137Z,74.76
2019-04-27T03:18:16.473Z,74.57
2019-04-27T03:21:10.396Z,74.45
2019-04-27T03:23:41.322Z,74.08
2019-04-27T03:26:31.349Z,74.48
2019-04-27T03:29:02.449Z,73.74
2019-04-27T03:31:33.366Z,74.00
2019-04-27T03:34:05.485Z,73.85
2019-04-27T03:36:39.356Z,74.08
2019-04-27T03:39:10.334Z,74.43
2019-04-27T03:41:41.374Z,74.37
2019-04-27T03:44:12.270Z,74.48
2019-04-27T03:46:43.212Z,74.74
2019-04-27T03:49:28.084Z,74.75
2019-04-27T03:52:05.599Z,74.59
2019-04-27T03:54:45.159Z,74.35
2019-04-27T03:57:24.912Z,74.60
2019-04-27T04:00:00.334Z,74.92
2019-04-27T04:02:31.424Z,74.90
2019-04-27T04:05:02.476Z,74.92
2019-04-27T04:07:33.527Z,75.14
2019-04-27T04:10:05.271Z,74.71
2019-04-27T04:12:51.142Z,74.78
2019-04-27T04:15:52.197Z,75.34
2019-04-27T04:18:23.915Z,74.84
2019-04-27T04:20:54.906Z,75.13
2019-04-27T04:23:25.685Z,75.64
2019-04-27T04:25:59.514Z,75.68
2019-04-27T04:28:29.762Z,75.80
2019-04-27T04:31:01.034Z,75.59
2019-04-27T04:33:31.893Z,75.63
2019-04-27T04:36:02.946Z,75.68
2019-04-27T04:38:33.902Z,75.62
2019-04-27T04:41:09.566Z,75.88
2019-04-27T04:43:46.577Z,75.71
2019-04-27T04:46:39.944Z,76.10
2019-04-27T04:49:09.891Z,76.04
2019-04-27T04:51:41.132Z,75.81
2019-04-27T04:54:12.096Z,75.77
2019-04-27T04:56:43.162Z,75.57
2019-04-27T04:59:13.950Z,75.25
2019-04-27T05:01:44.900Z,75.26
2019-04-27T05:04:15.747Z,75.48
2019-04-27T05:06:46.638Z,75.22
2019-04-27T05:09:19.220Z,75.17
2019-04-27T05:11:50.118Z,75.37
2019-04-27T05:14:21.658Z,75.29
2019-04-27T05:16:52.589Z,75.68
2019-04-27T05:19:23.757Z,75.57
2019-04-27T05:21:54.569Z,75.61
2019-04-27T05:24:25.600Z,76.14
2019-04-27T05:26:56.432Z,76.18
2019-04-27T05:29:29.125Z,76.44
2019-04-27T05:32:00.246Z,77.18
2019-04-27T05:34:31.206Z,78.16
2019-04-27T05:37:02.980Z,78.67
2019-04-27T05:39:33.802Z,79.24
2019-04-27T05:42:04.794Z,79.28
2019-04-27T05:45:03.351Z,79.47
2019-04-27T05:47:48.373Z,79.71
2019-04-27T05:50:21.951Z,79.89
2019-04-27T05:52:51.010Z,79.92
2019-04-27T05:55:22.125Z,80.48
2019-04-27T05:57:53.014Z,80.48
2019-04-27T06:00:23.906Z,80.75
2019-04-27T06:02:54.786Z,80.64
2019-04-27T06:05:25.590Z,80.83
2019-04-27T06:07:56.452Z,81.53
2019-04-27T06:10:27.232Z,81.14
2019-04-27T06:12:59.771Z,81.13
2019-04-27T06:15:30.760Z,81.36
2019-04-27T06:18:01.689Z,81.27
2019-04-27T06:20:32.581Z,81.34
2019-04-27T06:23:03.462Z,82.25
2019-04-27T06:25:34.465Z,81.97
2019-04-27T06:28:05.403Z,80.74
2019-04-27T06:30:36.197Z,80.60
2019-04-27T06:33:07.074Z,80.66
2019-04-27T06:35:39.461Z,81.03
2019-04-27T06:38:11.620Z,80.48
2019-04-27T06:40:42.600Z,80.75
2019-04-27T06:43:14.565Z,80.92
2019-04-27T06:45:45.306Z,81.57
2019-04-27T06:48:16.187Z,81.09
2019-04-27T06:50:46.969Z,81.05
2019-04-27T06:53:19.165Z,80.90
2019-04-27T06:55:50.169Z,81.39
2019-04-27T06:58:21.147Z,81.16
2019-04-27T07:00:52.046Z,80.84
2019-04-27T07:03:23.380Z,80.92
2019-04-27T07:05:54.235Z,81.52
2019-04-27T07:08:25.172Z,81.11
2019-04-27T07:10:56.105Z,81.55
2019-04-27T07:13:26.961Z,81.10
2019-04-27T07:15:59.563Z,80.75
2019-04-27T07:18:30.272Z,82.04
2019-04-27T07:21:01.512Z,81.67
2019-04-27T07:23:32.341Z,81.58
2019-04-27T07:26:03.389Z,81.44
2019-04-27T07:28:34.242Z,81.40
2019-04-27T07:31:05.210Z,81.49
2019-04-27T07:33:36.002Z,81.12
2019-04-27T07:36:06.901Z,81.75
2019-04-27T07:38:39.381Z,81.55
2019-04-27T07:41:11.227Z,81.28
2019-04-27T07:44:03.922Z,81.23
2019-04-27T07:46:34.840Z,81.40
2019-04-27T07:49:06.209Z,80.96
2019-04-27T07:51:39.192Z,81.05
2019-04-27T07:54:09.788Z,80.70
2019-04-27T07:56:40.570Z,80.48
2019-04-27T07:59:11.429Z,80.47
2019-04-27T08:01:42.231Z,80.73
2019-04-27T08:04:13.287Z,80.69
2019-04-27T08:06:44.127Z,80.72
2019-04-27T08:09:14.953Z,80.04
2019-04-27T08:11:46.051Z,79.49
2019-04-27T08:14:18.516Z,79.32
2019-04-27T08:16:49.390Z,78.84
2019-04-27T08:19:20.406Z,78.93
2019-04-27T08:21:51.186Z,79.19
2019-04-27T08:24:22.411Z,79.61
2019-04-27T08:27:19.413Z,79.31
2019-04-27T08:30:15.398Z,79.08
2019-04-27T08:32:49.546Z,78.62
2019-04-27T08:35:21.110Z,78.61
2019-04-27T08:37:52.113Z,79.32
2019-04-27T08:40:23.199Z,77.61
2019-04-27T08:42:55.649Z,77.06
2019-04-27T08:45:26.827Z,76.44
2019-04-27T08:47:59.538Z,75.73
2019-04-27T08:50:30.383Z,74.74
2019-04-27T08:53:01.235Z,75.50
2019-04-27T08:55:32.222Z,75.58
2019-04-27T08:58:03.113Z,74.94
2019-04-27T09:00:34.097Z,74.80
2019-04-27T09:03:04.865Z,74.07
2019-04-27T09:05:35.753Z,74.56
2019-04-27T09:08:25.489Z,74.25
2019-04-27T09:11:14.550Z,75.27
2019-04-27T09:14:04.167Z,73.98
2019-04-27T09:17:00.081Z,73.92
2019-04-27T09:19:39.407Z,73.86
2019-04-27T09:22:16.115Z,73.04
2019-04-27T09:24:42.895Z,72.63
2019-04-27T09:27:13.904Z,72.04
2019-04-27T09:29:44.693Z,71.56
2019-04-27T09:32:15.577Z,72.31
2019-04-27T09:34:46.739Z,72.61
2019-04-27T09:37:17.556Z,71.53
2019-04-27T09:39:48.434Z,71.73
2019-04-27T09:42:19.322Z,71.55
2019-04-27T09:44:50.202Z,71.84
2019-04-27T09:47:21.178Z,70.90
2019-04-27T09:49:52.073Z,70.45
2019-04-27T09:52:26.251Z,69.29
2019-04-27T09:54:56.046Z,70.94
2019-04-27T09:57:26.884Z,69.06
2019-04-27T09:59:57.785Z,68.79
2019-04-27T10:02:28.693Z,70.45
2019-04-27T10:04:59.571Z,69.49
2019-04-27T10:07:30.474Z,68.99
2019-04-27T10:10:01.226Z,68.25
2019-04-27T10:12:34.325Z,67.34
2019-04-27T10:15:06.134Z,65.65
2019-04-27T10:17:37.079Z,66.41
2019-04-27T10:20:08.378Z,65.46
2019-04-27T10:22:42.891Z,65.61
2019-04-27T10:25:23.453Z,63.96
2019-04-27T10:28:00.436Z,63.13
2019-04-27T10:30:31.845Z,62.87
2019-04-27T10:33:02.688Z,62.61
2019-04-27T10:35:33.561Z,63.43
2019-04-27T10:38:04.537Z,64.65
2019-04-27T10:40:35.219Z,65.39
2019-04-27T10:43:06.430Z,65.99
2019-04-27T10:45:38.555Z,64.92
2019-04-27T10:48:09.743Z,66.44
2019-04-27T10:50:41.654Z,66.00
2019-04-27T10:53:12.962Z,65.24
2019-04-27T10:55:43.717Z,65.32
2019-04-27T10:58:14.694Z,64.28
2019-04-27T11:00:50.580Z,63.53
2019-04-27T11:03:40.507Z,63.51
2019-04-27T11:06:36.124Z,64.66
2019-04-27T11:09:09.653Z,63.36
2019-04-27T11:11:42.396Z,63.55
2019-04-27T11:14:13.635Z,63.04
2019-04-27T11:16:45.988Z,62.03
2019-04-27T11:19:17.097Z,62.67
2019-04-27T11:21:48.104Z,62.81
2019-04-27T11:24:19.158Z,63.47
2019-04-27T11:26:50.134Z,63.29
2019-04-27T11:29:21.030Z,62.57
2019-04-27T11:31:52.100Z,64.00
2019-04-27T11:34:24.655Z,62.22
2019-04-27T11:37:03.546Z,60.10
2019-04-27T11:39:35.947Z,59.98
2019-04-27T11:42:07.027Z,59.76
2019-04-27T11:44:38.625Z,57.69
2019-04-27T11:47:09.442Z,58.30
2019-04-27T11:49:40.214Z,60.85
2019-04-27T11:52:11.197Z,58.54
2019-04-27T11:54:42.094Z,59.80
2019-04-27T11:57:13.060Z,60.28
2019-04-27T11:59:43.851Z,59.74
2019-04-27T12:02:15.617Z,60.01
2019-04-27T12:04:47.486Z,60.68
2019-04-27T12:07:18.446Z,61.64
2019-04-27T12:09:49.252Z,61.76
2019-04-27T12:12:21.901Z,63.01
2019-04-27T12:14:53.184Z,63.47
2019-04-27T12:17:26.611Z,63.53
2019-04-27T12:19:56.701Z,64.67
2019-04-27T12:22:27.904Z,65.00
2019-04-27T12:24:59.806Z,65.30
2019-04-27T12:28:05.086Z,65.70
2019-04-27T12:30:53.878Z,65.53
2019-04-27T12:33:25.614Z,67.74
2019-04-27T12:35:57.358Z,69.69
2019-04-27T12:38:28.433Z,69.48
2019-04-27T12:40:59.349Z,68.24
2019-04-27T12:43:30.122Z,68.96
2019-04-27T12:46:00.958Z,69.31
2019-04-27T12:48:32.361Z,67.00
2019-04-27T12:51:03.367Z,67.67
2019-04-27T12:53:52.130Z,66.94
2019-04-27T12:56:29.643Z,65.15
2019-04-27T12:59:12.595Z,65.54
2019-04-27T13:01:43.477Z,65.56
2019-04-27T13:04:14.350Z,64.21
2019-04-27T13:06:46.883Z,65.12
2019-04-27T13:09:17.993Z,65.52
2019-04-27T13:11:48.865Z,67.36
2019-04-27T13:14:19.821Z,66.75
2019-04-27T13:16:50.739Z,64.31
2019-04-27T13:19:21.634Z,64.52
2019-04-27T13:21:52.396Z,64.07
2019-04-27T13:24:23.343Z,64.69
2019-04-27T13:26:55.957Z,63.67
2019-04-27T13:29:26.765Z,65.59
2019-04-27T13:31:57.818Z,65.67
2019-04-27T13:34:28.726Z,66.19
2019-04-27T13:37:01.390Z,64.56
2019-04-27T13:39:32.365Z,64.70
2019-04-27T13:42:03.226Z,62.98
2019-04-27T13:44:35.930Z,61.69
2019-04-27T13:47:27.285Z,61.83
2019-04-27T13:50:20.961Z,60.84
2019-04-27T13:52:52.052Z,59.44
2019-04-27T13:55:22.845Z,59.68
2019-04-27T13:57:53.831Z,58.46
2019-04-27T14:00:24.712Z,57.92
2019-04-27T14:02:55.627Z,55.77
2019-04-27T14:05:26.509Z,56.91
2019-04-27T14:07:59.061Z,57.72
2019-04-27T14:10:29.997Z,58.74
2019-04-27T14:13:00.906Z,57.90
2019-04-27T14:15:32.797Z,58.66
2019-04-27T14:18:03.641Z,57.13
2019-04-27T14:20:34.514Z,58.79
2019-04-27T14:23:18.796Z,56.67
2019-04-27T14:25:49.872Z,58.67
2019-04-27T14:28:20.725Z,58.34
2019-04-27T14:30:52.637Z,58.78
2019-04-27T14:33:23.611Z,60.12
2019-04-27T14:35:54.733Z,60.13
2019-04-27T14:38:26.517Z,60.44
2019-04-27T14:40:59.241Z,60.96
2019-04-27T14:43:30.020Z,62.03
2019-04-27T14:46:01.169Z,63.88
2019-04-27T14:48:32.020Z,62.95
2019-04-27T14:51:02.994Z,64.13
2019-04-27T14:53:34.694Z,64.50
2019-04-27T14:56:06.466Z,65.51
2019-04-27T14:58:37.407Z,66.09
2019-04-27T15:01:08.401Z,68.00
2019-04-27T15:03:39.289Z,67.94
2019-04-27T15:06:11.036Z,68.12
2019-04-27T15:08:42.691Z,69.18
2019-04-27T15:11:19.254Z,69.28
2019-04-27T15:13:50.436Z,62.29
2019-04-27T15:16:20.670Z,61.79
2019-04-27T15:18:56.197Z,63.35
2019-04-27T15:21:27.010Z,65.96
2019-04-27T15:24:04.279Z,67.14
2019-04-27T15:26:30.873Z,67.72
2019-04-27T15:29:03.491Z,69.79
2019-04-27T15:31:44.728Z,70.17
2019-04-27T15:34:41.816Z,68.92
2019-04-27T15:37:21.159Z,71.05
2019-04-27T15:40:12.712Z,71.76
2019-04-27T15:43:04.839Z,72.08
2019-04-27T15:45:35.830Z,71.43
2019-04-27T15:48:08.353Z,70.39
2019-04-27T15:50:39.498Z,71.67
2019-04-27T15:53:12.590Z,70.51
2019-04-27T15:55:43.464Z,71.65
2019-04-27T15:58:19.386Z,71.18
2019-04-27T16:00:49.647Z,71.90
2019-04-27T16:03:22.663Z,69.20
2019-04-27T16:05:52.674Z,70.67
2019-04-27T16:08:23.549Z,71.73
2019-04-27T16:10:54.643Z,72.94
2019-04-27T16:13:26.407Z,73.19
2019-04-27T16:15:58.407Z,73.47
2019-04-27T16:23:08.838Z,75.85
2019-04-27T16:25:48.486Z,76.63
2019-04-27T16:28:13.493Z,72.98
2019-04-27T16:30:48.147Z,73.91
2019-04-27T16:33:21.975Z,73.42
2019-04-27T16:35:53.043Z,72.61
2019-04-27T16:38:48.201Z,73.17
2019-04-27T16:41:19.135Z,69.99
2019-04-27T16:43:51.130Z,73.62
2019-04-27T16:46:22.019Z,73.60
2019-04-27T16:48:52.793Z,73.45
2019-04-27T16:51:23.726Z,74.22
2019-04-27T16:53:54.783Z,73.82
2019-04-27T16:56:25.493Z,73.93
2019-04-27T16:59:00.561Z,72.82
2019-04-27T17:01:30.713Z,72.57
2019-04-27T17:04:01.581Z,73.18
2019-04-27T17:06:32.315Z,73.72
2019-04-27T17:09:06.843Z,72.70
2019-04-27T17:11:38.806Z,74.37
2019-04-27T17:14:28.989Z,74.01
2019-04-27T17:17:28.824Z,73.47
2019-04-27T17:20:01.897Z,73.83
2019-04-27T17:22:32.769Z,73.01
2019-04-27T17:25:03.847Z,72.50
2019-04-27T17:27:40.154Z,74.38
2019-04-27T17:30:12.426Z,73.45
2019-04-27T17:32:51.026Z,72.12
2019-04-27T17:35:22.268Z,72.21
2019-04-27T17:37:54.429Z,73.13
2019-04-27T17:40:25.322Z,72.46
2019-04-27T17:42:59.738Z,72.20
2019-04-27T17:45:33.784Z,72.20
2019-04-27T17:48:06.823Z,72.43
2019-04-27T17:50:33.401Z,73.36
2019-04-27T17:53:04.164Z,73.51
2019-04-27T17:55:34.902Z,74.75
2019-04-27T17:58:06.647Z,74.21
2019-04-27T18:00:43.093Z,74.07
2019-04-27T18:03:12.569Z,73.98
2019-04-27T18:05:43.758Z,74.31
2019-04-27T18:08:20.428Z,73.19
2019-04-27T18:10:47.632Z,74.49
2019-04-27T18:13:20.864Z,74.18
2019-04-27T18:15:54.067Z,74.66
2019-04-27T18:18:30.975Z,74.10
2019-04-27T18:21:01.845Z,74.24
2019-04-27T18:23:34.492Z,74.77
2019-04-27T18:26:17.477Z,75.24
2019-04-27T18:28:52.232Z,74.84
2019-04-27T18:31:18.595Z,75.15
2019-04-27T18:33:49.498Z,74.85
2019-04-27T18:36:20.270Z,75.29
2019-04-27T18:38:51.069Z,75.02
2019-04-27T18:41:21.841Z,75.23
2019-04-27T18:43:55.175Z,74.56
2019-04-27T18:46:25.151Z,74.62
2019-04-27T18:49:14.716Z,74.29
2019-04-27T18:52:04.280Z,74.50
2019-04-27T18:54:38.160Z,73.59
2019-04-27T18:57:10.803Z,73.46
2019-04-27T18:59:40.687Z,73.44
2019-04-27T19:02:11.399Z,73.58
2019-04-27T19:04:42.110Z,73.38
2019-04-27T19:07:12.645Z,73.56
2019-04-27T19:09:43.328Z,73.25
2019-04-27T19:12:14.164Z,74.29
2019-04-27T19:14:45.971Z,74.18
2019-04-27T19:17:19.666Z,74.79
2019-04-27T19:19:49.982Z,75.02
2019-04-27T19:22:20.736Z,74.66
2019-04-27T19:24:51.356Z,74.74
2019-04-27T19:27:42.626Z,75.68
2019-04-27T19:30:28.068Z,74.12
2019-04-27T19:32:59.050Z,74.32
2019-04-27T19:35:30.907Z,74.37
2019-04-27T19:38:01.613Z,74.05
2019-04-27T19:40:33.629Z,73.97
2019-04-27T19:43:04.412Z,74.32
2019-04-27T19:45:35.575Z,75.00
2019-04-27T19:48:06.494Z,74.63
2019-04-27T19:50:39.129Z,75.15
2019-04-27T19:53:09.787Z,74.98
2019-04-27T19:55:40.737Z,75.28
2019-04-27T19:58:14.390Z,75.81
2019-04-27T20:01:11.483Z,75.80
2019-04-27T20:03:38.674Z,76.31
2019-04-27T20:06:09.518Z,76.13
2019-04-27T20:08:42.449Z,76.21
2019-04-27T20:11:13.342Z,76.01
2019-04-27T20:13:44.200Z,76.13
2019-04-27T20:16:14.986Z,75.37
2019-04-27T20:18:45.710Z,76.27
2019-04-27T20:21:16.445Z,76.43
2019-04-27T20:23:47.227Z,75.98
2019-04-27T20:26:18.117Z,76.76
2019-04-27T20:28:48.845Z,77.74
2019-04-27T20:31:19.747Z,76.29
2019-04-27T20:33:50.483Z,77.15
2019-04-27T20:36:21.424Z,78.51
2019-04-27T20:38:52.212Z,79.64
2019-04-27T20:41:22.903Z,80.20
2019-04-27T20:43:53.572Z,79.88
2019-04-27T20:46:25.422Z,79.62
2019-04-27T20:48:56.201Z,80.12
2019-04-27T20:51:50.092Z,80.10
2019-04-27T20:54:16.987Z,79.50
2019-04-27T20:56:47.844Z,79.34
2019-04-27T20:59:18.436Z,79.40
2019-04-27T21:01:49.290Z,79.60
2019-04-27T21:04:22.675Z,79.21
2019-04-27T21:06:56.625Z,79.40
2019-04-27T21:09:27.185Z,79.13
2019-04-27T21:11:58.042Z,78.92
2019-04-27T21:14:28.744Z,78.73
2019-04-27T21:17:01.596Z,79.10
2019-04-27T21:19:31.809Z,78.97
2019-04-27T21:22:02.597Z,79.01
2019-04-27T21:24:33.303Z,80.08
2019-04-27T21:27:04.535Z,79.99
2019-04-27T21:29:35.619Z,80.41
2019-04-27T21:32:07.942Z,80.17
2019-04-27T21:34:41.317Z,80.07
2019-04-27T21:37:12.854Z,80.25
2019-04-27T21:39:43.404Z,80.00
2019-04-27T21:42:14.265Z,80.23
2019-04-27T21:44:44.934Z,80.20
2019-04-27T21:47:15.594Z,80.33
2019-04-27T21:49:46.432Z,80.39
2019-04-27T21:52:26.397Z,80.48
2019-04-27T21:54:57.217Z,80.09
2019-04-27T21:57:27.817Z,80.13
2019-04-27T21:59:58.479Z,80.38
2019-04-27T22:02:31.113Z,80.14
2019-04-27T22:05:02.449Z,80.34
2019-04-27T22:07:37.433Z,80.27
2019-04-27T22:10:07.165Z,80.05
2019-04-27T22:12:37.950Z,79.99
2019-04-27T22:15:08.735Z,80.07
2019-04-27T22:17:39.427Z,80.13
2019-04-27T22:20:11.703Z,80.02
2019-04-27T22:22:46.450Z,80.03
2019-04-27T22:25:18.930Z,79.84
2019-04-27T22:27:51.254Z,79.99
2019-04-27T22:30:22.026Z,80.46
2019-04-27T22:32:52.598Z,80.68
2019-04-27T22:35:23.406Z,80.51
2019-04-27T22:37:54.269Z,80.48
2019-04-27T22:40:47.512Z,80.56
2019-04-27T22:43:36.207Z,80.36
2019-04-27T22:46:09.081Z,80.15
2019-04-27T22:48:41.530Z,80.38
2019-04-27T22:51:12.350Z,80.17
2019-04-27T22:53:43.325Z,79.98
2019-04-27T22:56:19.358Z,80.29
2019-04-27T22:59:00.525Z,80.00
2019-04-27T23:02:03.142Z,80.20
2019-04-27T23:04:38.202Z,79.85
2019-04-27T23:07:08.937Z,79.48
2019-04-27T23:09:40.794Z,79.99
2019-04-27T23:12:12.422Z,79.70
2019-04-27T23:14:43.590Z,79.42
2019-04-27T23:17:31.642Z,79.82
2019-04-27T23:20:02.379Z,79.75
2019-04-27T23:22:33.348Z,79.92
2019-04-27T23:25:04.401Z,79.81
2019-04-27T23:27:35.178Z,79.88
2019-04-27T23:30:06.373Z,79.72
2019-04-27T23:32:43.052Z,79.17
2019-04-27T23:35:14.041Z,79.47
2019-04-27T23:37:44.754Z,79.09
2019-04-27T23:40:15.967Z,79.10
2019-04-27T23:42:46.792Z,79.46
2019-04-27T23:45:17.970Z,79.33
2019-04-27T23:47:48.882Z,78.59
2019-04-27T23:50:21.766Z,78.65
2019-04-27T23:53:13.746Z,78.73
2019-04-27T23:55:44.557Z,78.84
2019-04-27T23:58:15.438Z,79.46
